sensor_id;sensor_type;location;lat;lon;timestamp;P1;durP1;ratioP1;P2;durP2;ratioP2
78674;SDS011;67990;59.826;30.108;2023-02-28T00:00:18;5.50;;;0.75;;
78674;SDS011;67990;59.826;30.108;2023-02-28T00:02:46;3.63;;;0.88;;
78674;SDS011;67990;59.826;30.108;2023-02-28T00:05:14;2.77;;;0.57;;
78674;SDS011;67990;59.826;30.108;2023-02-28T00:07:43;3.15;;;0.88;;
78674;SDS011;67990;59.826;30.108;2023-02-28T00:10:12;3.40;;;0.70;;
78674;SDS011;67990;59.826;30.108;2023-02-28T00:12:41;3.13;;;0.50;;
78674;SDS011;67990;59.826;30.108;2023-02-28T00:15:09;2.45;;;0.60;;
78674;SDS011;67990;59.826;30.108;2023-02-28T00:17:37;3.33;;;0.60;;
78674;SDS011;67990;59.826;30.108;2023-02-28T00:20:05;4.10;;;0.52;;
78674;SDS011;67990;59.826;30.108;2023-02-28T00:22:35;4.60;;;0.50;;
78674;SDS011;67990;59.826;30.108;2023-02-28T00:25:03;2.78;;;0.30;;
78674;SDS011;67990;59.826;30.108;2023-02-28T00:27:33;3.95;;;0.40;;
78674;SDS011;67990;59.826;30.108;2023-02-28T00:30:04;2.30;;;0.37;;
78674;SDS011;67990;59.826;30.108;2023-02-28T00:32:32;2.17;;;0.30;;
78674;SDS011;67990;59.826;30.108;2023-02-28T00:35:00;3.88;;;0.50;;
78674;SDS011;67990;59.826;30.108;2023-02-28T00:37:28;3.50;;;0.30;;
78674;SDS011;67990;59.826;30.108;2023-02-28T00:39:55;3.53;;;0.30;;
78674;SDS011;67990;59.826;30.108;2023-02-28T00:42:22;2.20;;;0.30;;
78674;SDS011;67990;59.826;30.108;2023-02-28T00:44:52;3.25;;;0.50;;
78674;SDS011;67990;59.826;30.108;2023-02-28T00:47:19;2.20;;;0.30;;
78674;SDS011;67990;59.826;30.108;2023-02-28T00:49:46;4.05;;;0.32;;
78674;SDS011;67990;59.826;30.108;2023-02-28T00:52:14;2.42;;;0.40;;
78674;SDS011;67990;59.826;30.108;2023-02-28T00:54:41;3.53;;;0.30;;
78674;SDS011;67990;59.826;30.108;2023-02-28T00:57:08;2.70;;;0.30;;
78674;SDS011;67990;59.826;30.108;2023-02-28T00:59:35;2.47;;;0.30;;
78674;SDS011;67990;59.826;30.108;2023-02-28T01:02:06;1.58;;;0.20;;
78674;SDS011;67990;59.826;30.108;2023-02-28T01:04:35;2.20;;;0.20;;
78674;SDS011;67990;59.826;30.108;2023-02-28T01:07:02;2.93;;;0.20;;
78674;SDS011;67990;59.826;30.108;2023-02-28T01:09:30;2.42;;;0.30;;
78674;SDS011;67990;59.826;30.108;2023-02-28T01:11:57;2.30;;;0.38;;
78674;SDS011;67990;59.826;30.108;2023-02-28T01:14:24;1.83;;;0.20;;
78674;SDS011;67990;59.826;30.108;2023-02-28T01:16:51;5.22;;;0.40;;
78674;SDS011;67990;59.826;30.108;2023-02-28T01:19:20;2.40;;;0.20;;
78674;SDS011;67990;59.826;30.108;2023-02-28T01:21:47;3.28;;;0.20;;
78674;SDS011;67990;59.826;30.108;2023-02-28T01:24:14;1.80;;;0.20;;
78674;SDS011;67990;59.826;30.108;2023-02-28T01:26:41;1.23;;;0.10;;
78674;SDS011;67990;59.826;30.108;2023-02-28T01:29:08;1.92;;;0.20;;
78674;SDS011;67990;59.826;30.108;2023-02-28T01:31:35;1.40;;;0.10;;
78674;SDS011;67990;59.826;30.108;2023-02-28T01:34:03;2.17;;;0.20;;
78674;SDS011;67990;59.826;30.108;2023-02-28T01:36:31;2.35;;;0.20;;
78674;SDS011;67990;59.826;30.108;2023-02-28T01:38:58;1.85;;;0.20;;
78674;SDS011;67990;59.826;30.108;2023-02-28T01:41:26;2.72;;;0.20;;
78674;SDS011;67990;59.826;30.108;2023-02-28T01:43:57;2.43;;;0.20;;
78674;SDS011;67990;59.826;30.108;2023-02-28T01:46:29;1.98;;;0.20;;
78674;SDS011;67990;59.826;30.108;2023-02-28T01:48:58;3.30;;;0.30;;
78674;SDS011;67990;59.826;30.108;2023-02-28T01:51:36;1.33;;;0.13;;
78674;SDS011;67990;59.826;30.108;2023-02-28T01:54:12;3.05;;;0.65;;
78674;SDS011;67990;59.826;30.108;2023-02-28T01:56:44;1.23;;;0.10;;
78674;SDS011;67990;59.826;30.108;2023-02-28T01:59:18;1.63;;;0.30;;
78674;SDS011;67990;59.826;30.108;2023-02-28T02:01:53;1.60;;;0.20;;
78674;SDS011;67990;59.826;30.108;2023-02-28T02:04:21;1.70;;;0.15;;
78674;SDS011;67990;59.826;30.108;2023-02-28T02:06:54;2.10;;;0.10;;
78674;SDS011;67990;59.826;30.108;2023-02-28T02:09:22;1.00;;;0.10;;
78674;SDS011;67990;59.826;30.108;2023-02-28T02:11:51;1.13;;;0.10;;
78674;SDS011;67990;59.826;30.108;2023-02-28T02:14:33;1.48;;;0.15;;
78674;SDS011;67990;59.826;30.108;2023-02-28T02:17:14;2.55;;;0.20;;
78674;SDS011;67990;59.826;30.108;2023-02-28T02:26:10;2.90;;;0.30;;
78674;SDS011;67990;59.826;30.108;2023-02-28T02:29:10;1.73;;;0.30;;
78674;SDS011;67990;59.826;30.108;2023-02-28T02:31:52;2.47;;;0.10;;
78674;SDS011;67990;59.826;30.108;2023-02-28T02:34:42;1.90;;;0.20;;
78674;SDS011;67990;59.826;30.108;2023-02-28T02:37:25;1.70;;;0.27;;
78674;SDS011;67990;59.826;30.108;2023-02-28T02:40:00;2.20;;;0.20;;
78674;SDS011;67990;59.826;30.108;2023-02-28T02:42:38;1.58;;;0.20;;
78674;SDS011;67990;59.826;30.108;2023-02-28T02:45:12;1.35;;;0.10;;
78674;SDS011;67990;59.826;30.108;2023-02-28T02:47:43;1.77;;;0.10;;
78674;SDS011;67990;59.826;30.108;2023-02-28T02:50:13;3.57;;;0.10;;
78674;SDS011;67990;59.826;30.108;2023-02-28T02:52:48;2.25;;;0.10;;
78674;SDS011;67990;59.826;30.108;2023-02-28T02:55:19;2.88;;;0.10;;
78674;SDS011;67990;59.826;30.108;2023-02-28T02:57:49;1.90;;;0.10;;
78674;SDS011;67990;59.826;30.108;2023-02-28T03:00:21;1.75;;;0.20;;
78674;SDS011;67990;59.826;30.108;2023-02-28T03:02:52;1.73;;;0.20;;
78674;SDS011;67990;59.826;30.108;2023-02-28T03:05:23;1.60;;;0.10;;
78674;SDS011;67990;59.826;30.108;2023-02-28T03:07:54;2.28;;;0.20;;
78674;SDS011;67990;59.826;30.108;2023-02-28T03:10:32;1.83;;;0.20;;
78674;SDS011;67990;59.826;30.108;2023-02-28T03:16:09;2.50;;;0.20;;
78674;SDS011;67990;59.826;30.108;2023-02-28T03:18:51;1.42;;;0.10;;
78674;SDS011;67990;59.826;30.108;2023-02-28T03:21:27;1.77;;;0.30;;
78674;SDS011;67990;59.826;30.108;2023-02-28T03:24:02;1.45;;;0.17;;
78674;SDS011;67990;59.826;30.108;2023-02-28T03:26:33;2.17;;;0.15;;
78674;SDS011;67990;59.826;30.108;2023-02-28T03:29:07;1.63;;;0.20;;
78674;SDS011;67990;59.826;30.108;2023-02-28T03:31:44;3.03;;;0.15;;
78674;SDS011;67990;59.826;30.108;2023-02-28T03:34:16;2.15;;;0.20;;
78674;SDS011;67990;59.826;30.108;2023-02-28T03:36:52;1.35;;;0.20;;
78674;SDS011;67990;59.826;30.108;2023-02-28T03:39:22;2.33;;;0.20;;
78674;SDS011;67990;59.826;30.108;2023-02-28T03:41:57;2.90;;;0.20;;
78674;SDS011;67990;59.826;30.108;2023-02-28T03:44:27;2.00;;;0.10;;
78674;SDS011;67990;59.826;30.108;2023-02-28T03:47:00;4.10;;;0.20;;
78674;SDS011;67990;59.826;30.108;2023-02-28T03:49:31;1.73;;;0.20;;
78674;SDS011;67990;59.826;30.108;2023-02-28T03:52:04;2.08;;;0.30;;
78674;SDS011;67990;59.826;30.108;2023-02-28T03:54:35;1.93;;;0.20;;
78674;SDS011;67990;59.826;30.108;2023-02-28T03:57:10;1.95;;;0.30;;
78674;SDS011;67990;59.826;30.108;2023-02-28T03:59:43;1.60;;;0.20;;
78674;SDS011;67990;59.826;30.108;2023-02-28T04:02:14;1.90;;;0.10;;
78674;SDS011;67990;59.826;30.108;2023-02-28T04:04:41;1.33;;;0.10;;
78674;SDS011;67990;59.826;30.108;2023-02-28T04:07:15;2.20;;;0.20;;
78674;SDS011;67990;59.826;30.108;2023-02-28T04:09:42;1.58;;;0.10;;
78674;SDS011;67990;59.826;30.108;2023-02-28T04:12:10;2.78;;;0.20;;
78674;SDS011;67990;59.826;30.108;2023-02-28T04:14:37;1.60;;;0.20;;
78674;SDS011;67990;59.826;30.108;2023-02-28T04:17:04;1.20;;;0.10;;
78674;SDS011;67990;59.826;30.108;2023-02-28T04:19:32;2.33;;;0.20;;
78674;SDS011;67990;59.826;30.108;2023-02-28T04:21:59;2.28;;;0.30;;
78674;SDS011;67990;59.826;30.108;2023-02-28T04:24:27;1.52;;;0.20;;
78674;SDS011;67990;59.826;30.108;2023-02-28T04:26:56;1.23;;;0.10;;
78674;SDS011;67990;59.826;30.108;2023-02-28T04:29:24;2.50;;;0.10;;
78674;SDS011;67990;59.826;30.108;2023-02-28T04:31:52;1.23;;;0.10;;
78674;SDS011;67990;59.826;30.108;2023-02-28T04:34:20;1.88;;;0.20;;
78674;SDS011;67990;59.826;30.108;2023-02-28T04:36:48;1.15;;;0.10;;
78674;SDS011;67990;59.826;30.108;2023-02-28T04:39:16;1.80;;;0.10;;
78674;SDS011;67990;59.826;30.108;2023-02-28T04:41:45;2.40;;;0.10;;
78674;SDS011;67990;59.826;30.108;2023-02-28T04:44:12;1.20;;;0.10;;
78674;SDS011;67990;59.826;30.108;2023-02-28T04:46:40;1.42;;;0.10;;
78674;SDS011;67990;59.826;30.108;2023-02-28T04:49:07;3.25;;;0.10;;
78674;SDS011;67990;59.826;30.108;2023-02-28T04:51:35;1.30;;;0.10;;
78674;SDS011;67990;59.826;30.108;2023-02-28T04:54:02;2.42;;;0.20;;
78674;SDS011;67990;59.826;30.108;2023-02-28T04:56:29;1.53;;;0.20;;
78674;SDS011;67990;59.826;30.108;2023-02-28T04:58:57;1.30;;;0.10;;
78674;SDS011;67990;59.826;30.108;2023-02-28T05:01:26;2.03;;;0.20;;
78674;SDS011;67990;59.826;30.108;2023-02-28T05:03:55;1.05;;;0.10;;
78674;SDS011;67990;59.826;30.108;2023-02-28T05:06:25;2.63;;;0.20;;
78674;SDS011;67990;59.826;30.108;2023-02-28T05:08:53;3.43;;;0.20;;
78674;SDS011;67990;59.826;30.108;2023-02-28T05:11:21;1.20;;;0.10;;
78674;SDS011;67990;59.826;30.108;2023-02-28T05:13:51;1.80;;;0.20;;
78674;SDS011;67990;59.826;30.108;2023-02-28T05:16:21;1.45;;;0.10;;
78674;SDS011;67990;59.826;30.108;2023-02-28T05:18:49;2.45;;;0.10;;
78674;SDS011;67990;59.826;30.108;2023-02-28T05:24:02;2.13;;;0.10;;
78674;SDS011;67990;59.826;30.108;2023-02-28T05:26:31;1.42;;;0.20;;
78674;SDS011;67990;59.826;30.108;2023-02-28T05:29:01;1.38;;;0.10;;
78674;SDS011;67990;59.826;30.108;2023-02-28T05:31:29;1.58;;;0.20;;
78674;SDS011;67990;59.826;30.108;2023-02-28T05:33:56;2.73;;;0.20;;
78674;SDS011;67990;59.826;30.108;2023-02-28T05:36:24;1.38;;;0.10;;
78674;SDS011;67990;59.826;30.108;2023-02-28T05:38:51;2.40;;;0.20;;
78674;SDS011;67990;59.826;30.108;2023-02-28T05:41:19;2.78;;;0.20;;
78674;SDS011;67990;59.826;30.108;2023-02-28T05:43:46;1.48;;;0.20;;
78674;SDS011;67990;59.826;30.108;2023-02-28T05:46:14;2.03;;;0.10;;
78674;SDS011;67990;59.826;30.108;2023-02-28T05:48:45;2.75;;;0.30;;
78674;SDS011;67990;59.826;30.108;2023-02-28T05:51:13;2.33;;;0.20;;
78674;SDS011;67990;59.826;30.108;2023-02-28T05:53:41;2.50;;;0.40;;
78674;SDS011;67990;59.826;30.108;2023-02-28T05:56:08;4.70;;;0.20;;
78674;SDS011;67990;59.826;30.108;2023-02-28T05:58:35;2.17;;;0.20;;
78674;SDS011;67990;59.826;30.108;2023-02-28T06:03:59;2.13;;;0.20;;
78674;SDS011;67990;59.826;30.108;2023-02-28T06:06:27;2.60;;;0.20;;
78674;SDS011;67990;59.826;30.108;2023-02-28T06:08:55;1.90;;;0.20;;
78674;SDS011;67990;59.826;30.108;2023-02-28T06:11:22;1.50;;;0.20;;
78674;SDS011;67990;59.826;30.108;2023-02-28T06:13:53;2.28;;;0.25;;
78674;SDS011;67990;59.826;30.108;2023-02-28T06:16:21;2.60;;;0.20;;
78674;SDS011;67990;59.826;30.108;2023-02-28T06:18:48;4.13;;;0.90;;
78674;SDS011;67990;59.826;30.108;2023-02-28T06:21:16;3.08;;;0.50;;
78674;SDS011;67990;59.826;30.108;2023-02-28T06:23:43;2.90;;;0.20;;
78674;SDS011;67990;59.826;30.108;2023-02-28T06:26:11;2.97;;;0.20;;
78674;SDS011;67990;59.826;30.108;2023-02-28T06:28:38;3.58;;;0.22;;
78674;SDS011;67990;59.826;30.108;2023-02-28T06:31:05;3.95;;;0.20;;
78674;SDS011;67990;59.826;30.108;2023-02-28T06:33:34;1.63;;;0.20;;
78674;SDS011;67990;59.826;30.108;2023-02-28T06:36:01;1.20;;;0.20;;
78674;SDS011;67990;59.826;30.108;2023-02-28T06:38:30;1.23;;;0.20;;
78674;SDS011;67990;59.826;30.108;2023-02-28T06:40:58;2.20;;;0.20;;
78674;SDS011;67990;59.826;30.108;2023-02-28T06:43:27;1.38;;;0.20;;
78674;SDS011;67990;59.826;30.108;2023-02-28T06:45:55;2.03;;;0.22;;
78674;SDS011;67990;59.826;30.108;2023-02-28T06:48:23;1.60;;;0.17;;
78674;SDS011;67990;59.826;30.108;2023-02-28T06:50:50;1.45;;;0.10;;
78674;SDS011;67990;59.826;30.108;2023-02-28T06:53:18;3.25;;;0.20;;
78674;SDS011;67990;59.826;30.108;2023-02-28T06:55:46;2.38;;;0.17;;
78674;SDS011;67990;59.826;30.108;2023-02-28T06:58:14;2.75;;;0.20;;
78674;SDS011;67990;59.826;30.108;2023-02-28T07:00:44;2.00;;;0.20;;
78674;SDS011;67990;59.826;30.108;2023-02-28T07:03:12;1.60;;;0.20;;
78674;SDS011;67990;59.826;30.108;2023-02-28T07:05:41;1.52;;;0.20;;
78674;SDS011;67990;59.826;30.108;2023-02-28T07:08:08;1.58;;;0.20;;
78674;SDS011;67990;59.826;30.108;2023-02-28T07:10:36;3.33;;;0.25;;
78674;SDS011;67990;59.826;30.108;2023-02-28T07:13:06;1.67;;;0.10;;
78674;SDS011;67990;59.826;30.108;2023-02-28T07:15:35;3.08;;;0.55;;
78674;SDS011;67990;59.826;30.108;2023-02-28T07:18:02;4.05;;;0.30;;
78674;SDS011;67990;59.826;30.108;2023-02-28T07:20:30;3.70;;;0.38;;
78674;SDS011;67990;59.826;30.108;2023-02-28T07:22:57;4.32;;;0.30;;
78674;SDS011;67990;59.826;30.108;2023-02-28T07:25:25;3.00;;;0.20;;
78674;SDS011;67990;59.826;30.108;2023-02-28T07:27:53;3.15;;;0.30;;
78674;SDS011;67990;59.826;30.108;2023-02-28T07:30:22;1.27;;;0.10;;
78674;SDS011;67990;59.826;30.108;2023-02-28T07:32:50;3.00;;;0.20;;
78674;SDS011;67990;59.826;30.108;2023-02-28T07:35:17;3.85;;;0.47;;
78674;SDS011;67990;59.826;30.108;2023-02-28T07:37:44;3.13;;;0.20;;
78674;SDS011;67990;59.826;30.108;2023-02-28T07:40:12;2.80;;;0.30;;
78674;SDS011;67990;59.826;30.108;2023-02-28T07:42:40;2.15;;;0.30;;
78674;SDS011;67990;59.826;30.108;2023-02-28T07:45:09;2.67;;;0.30;;
78674;SDS011;67990;59.826;30.108;2023-02-28T07:47:38;4.53;;;0.40;;
78674;SDS011;67990;59.826;30.108;2023-02-28T07:50:06;3.20;;;0.30;;
78674;SDS011;67990;59.826;30.108;2023-02-28T07:52:35;2.15;;;0.20;;
78674;SDS011;67990;59.826;30.108;2023-02-28T07:55:03;4.25;;;0.43;;
78674;SDS011;67990;59.826;30.108;2023-02-28T07:57:31;2.63;;;0.50;;
78674;SDS011;67990;59.826;30.108;2023-02-28T07:59:58;5.05;;;0.98;;
78674;SDS011;67990;59.826;30.108;2023-02-28T08:02:25;3.50;;;0.40;;
78674;SDS011;67990;59.826;30.108;2023-02-28T08:04:54;3.53;;;0.40;;
78674;SDS011;67990;59.826;30.108;2023-02-28T08:07:21;2.42;;;0.38;;
78674;SDS011;67990;59.826;30.108;2023-02-28T08:09:48;4.10;;;0.50;;
78674;SDS011;67990;59.826;30.108;2023-02-28T08:12:15;3.40;;;0.30;;
78674;SDS011;67990;59.826;30.108;2023-02-28T08:14:43;2.80;;;0.20;;
78674;SDS011;67990;59.826;30.108;2023-02-28T08:17:10;2.45;;;0.30;;
78674;SDS011;67990;59.826;30.108;2023-02-28T08:19:37;2.88;;;0.30;;
78674;SDS011;67990;59.826;30.108;2023-02-28T08:22:06;4.05;;;0.20;;
78674;SDS011;67990;59.826;30.108;2023-02-28T08:24:33;4.50;;;0.32;;
78674;SDS011;67990;59.826;30.108;2023-02-28T08:27:00;4.77;;;0.30;;
78674;SDS011;67990;59.826;30.108;2023-02-28T08:29:27;4.55;;;0.70;;
78674;SDS011;67990;59.826;30.108;2023-02-28T08:31:55;4.40;;;0.70;;
78674;SDS011;67990;59.826;30.108;2023-02-28T08:34:24;4.72;;;0.55;;
78674;SDS011;67990;59.826;30.108;2023-02-28T08:36:51;8.20;;;1.70;;
78674;SDS011;67990;59.826;30.108;2023-02-28T08:39:19;7.87;;;1.73;;
